sensor_id;sensor_type;location;lat;lon;timestamp;P1;durP1;ratioP1;P2;durP2;ratioP2
68923;SDS011;55961;52.156;20.942;2023-12-20T00:01:54;20.42;;;8.27;;
68923;SDS011;55961;52.156;20.942;2023-12-20T00:04:20;16.67;;;8.07;;
68923;SDS011;55961;52.156;20.942;2023-12-20T00:06:46;17.58;;;8.65;;
68923;SDS011;55961;52.156;20.942;2023-12-20T00:09:12;9.13;;;4.45;;
68923;SDS011;55961;52.156;20.942;2023-12-20T00:11:38;18.43;;;8.57;;
68923;SDS011;55961;52.156;20.942;2023-12-20T00:14:04;16.33;;;7.70;;
68923;SDS011;55961;52.156;20.942;2023-12-20T00:16:30;13.68;;;7.00;;
68923;SDS011;55961;52.156;20.942;2023-12-20T00:18:57;14.30;;;7.70;;
68923;SDS011;55961;52.156;20.942;2023-12-20T00:21:23;17.30;;;7.93;;
68923;SDS011;55961;52.156;20.942;2023-12-20T00:23:49;15.80;;;8.18;;
68923;SDS011;55961;52.156;20.942;2023-12-20T00:26:15;14.65;;;7.47;;
68923;SDS011;55961;52.156;20.942;2023-12-20T00:28:40;13.45;;;6.90;;
68923;SDS011;55961;52.156;20.942;2023-12-20T00:31:08;12.77;;;7.00;;
68923;SDS011;55961;52.156;20.942;2023-12-20T00:33:34;9.80;;;4.97;;
68923;SDS011;55961;52.156;20.942;2023-12-20T00:36:00;14.63;;;7.80;;
68923;SDS011;55961;52.156;20.942;2023-12-20T00:38:26;11.15;;;5.57;;
68923;SDS011;55961;52.156;20.942;2023-12-20T00:40:52;10.83;;;5.90;;
68923;SDS011;55961;52.156;20.942;2023-12-20T00:43:18;12.93;;;6.45;;
68923;SDS011;55961;52.156;20.942;2023-12-20T00:45:44;13.70;;;6.13;;
68923;SDS011;55961;52.156;20.942;2023-12-20T00:48:10;14.73;;;7.15;;
68923;SDS011;55961;52.156;20.942;2023-12-20T00:50:36;14.07;;;6.50;;
68923;SDS011;55961;52.156;20.942;2023-12-20T00:53:05;14.18;;;7.78;;
68923;SDS011;55961;52.156;20.942;2023-12-20T00:55:31;11.93;;;6.93;;
68923;SDS011;55961;52.156;20.942;2023-12-20T00:57:57;12.63;;;5.97;;
68923;SDS011;55961;52.156;20.942;2023-12-20T01:00:24;13.93;;;6.43;;
68923;SDS011;55961;52.156;20.942;2023-12-20T01:02:50;13.60;;;7.50;;
68923;SDS011;55961;52.156;20.942;2023-12-20T01:05:17;12.05;;;4.65;;
68923;SDS011;55961;52.156;20.942;2023-12-20T01:07:44;12.57;;;7.20;;
68923;SDS011;55961;52.156;20.942;2023-12-20T01:10:10;12.75;;;6.47;;
68923;SDS011;55961;52.156;20.942;2023-12-20T01:12:36;13.10;;;7.13;;
68923;SDS011;55961;52.156;20.942;2023-12-20T01:15:02;13.18;;;6.47;;
68923;SDS011;55961;52.156;20.942;2023-12-20T01:17:28;11.33;;;5.57;;
68923;SDS011;55961;52.156;20.942;2023-12-20T01:19:54;13.20;;;6.30;;
68923;SDS011;55961;52.156;20.942;2023-12-20T01:22:20;12.68;;;5.47;;
68923;SDS011;55961;52.156;20.942;2023-12-20T01:24:46;12.88;;;6.72;;
68923;SDS011;55961;52.156;20.942;2023-12-20T01:27:12;10.87;;;5.10;;
68923;SDS011;55961;52.156;20.942;2023-12-20T01:29:38;11.75;;;6.40;;
68923;SDS011;55961;52.156;20.942;2023-12-20T01:32:04;11.98;;;6.03;;
68923;SDS011;55961;52.156;20.942;2023-12-20T01:34:31;11.43;;;4.87;;
68923;SDS011;55961;52.156;20.942;2023-12-20T01:36:56;12.85;;;6.68;;
68923;SDS011;55961;52.156;20.942;2023-12-20T01:39:23;14.98;;;7.00;;
68923;SDS011;55961;52.156;20.942;2023-12-20T01:41:48;11.60;;;5.13;;
68923;SDS011;55961;52.156;20.942;2023-12-20T01:44:14;10.07;;;5.70;;
68923;SDS011;55961;52.156;20.942;2023-12-20T01:46:40;11.43;;;5.80;;
68923;SDS011;55961;52.156;20.942;2023-12-20T01:49:06;11.10;;;6.07;;
68923;SDS011;55961;52.156;20.942;2023-12-20T01:51:33;13.13;;;6.25;;
68923;SDS011;55961;52.156;20.942;2023-12-20T01:54:00;10.63;;;5.53;;
68923;SDS011;55961;52.156;20.942;2023-12-20T01:56:26;10.18;;;5.15;;
68923;SDS011;55961;52.156;20.942;2023-12-20T01:58:55;10.73;;;5.53;;
68923;SDS011;55961;52.156;20.942;2023-12-20T02:01:21;10.13;;;5.77;;
68923;SDS011;55961;52.156;20.942;2023-12-20T02:03:48;9.45;;;4.82;;
68923;SDS011;55961;52.156;20.942;2023-12-20T02:06:14;9.77;;;4.93;;
68923;SDS011;55961;52.156;20.942;2023-12-20T02:08:41;12.07;;;5.78;;
68923;SDS011;55961;52.156;20.942;2023-12-20T02:11:07;11.63;;;5.67;;
68923;SDS011;55961;52.156;20.942;2023-12-20T02:13:33;11.15;;;5.28;;
68923;SDS011;55961;52.156;20.942;2023-12-20T02:15:59;11.30;;;5.22;;
68923;SDS011;55961;52.156;20.942;2023-12-20T02:18:26;13.18;;;5.75;;
68923;SDS011;55961;52.156;20.942;2023-12-20T02:20:51;10.47;;;5.43;;
68923;SDS011;55961;52.156;20.942;2023-12-20T02:23:18;12.40;;;6.38;;
68923;SDS011;55961;52.156;20.942;2023-12-20T02:25:44;11.95;;;6.72;;
68923;SDS011;55961;52.156;20.942;2023-12-20T02:28:11;10.90;;;6.22;;
68923;SDS011;55961;52.156;20.942;2023-12-20T02:30:37;9.97;;;5.37;;
68923;SDS011;55961;52.156;20.942;2023-12-20T02:33:03;10.35;;;5.22;;
68923;SDS011;55961;52.156;20.942;2023-12-20T02:35:32;10.60;;;4.75;;
68923;SDS011;55961;52.156;20.942;2023-12-20T02:37:58;8.55;;;4.32;;
68923;SDS011;55961;52.156;20.942;2023-12-20T02:40:24;10.37;;;5.00;;
68923;SDS011;55961;52.156;20.942;2023-12-20T02:42:50;9.75;;;4.22;;
68923;SDS011;55961;52.156;20.942;2023-12-20T02:45:16;11.00;;;5.05;;
68923;SDS011;55961;52.156;20.942;2023-12-20T02:47:42;9.60;;;4.70;;
68923;SDS011;55961;52.156;20.942;2023-12-20T02:50:08;9.10;;;4.53;;
68923;SDS011;55961;52.156;20.942;2023-12-20T02:52:34;12.40;;;5.55;;
68923;SDS011;55961;52.156;20.942;2023-12-20T02:55:00;9.75;;;5.45;;
68923;SDS011;55961;52.156;20.942;2023-12-20T02:57:26;12.20;;;5.60;;
68923;SDS011;55961;52.156;20.942;2023-12-20T02:59:52;11.68;;;5.05;;
68923;SDS011;55961;52.156;20.942;2023-12-20T03:02:18;11.82;;;5.35;;
68923;SDS011;55961;52.156;20.942;2023-12-20T03:04:43;10.13;;;4.90;;
68923;SDS011;55961;52.156;20.942;2023-12-20T03:07:09;10.18;;;4.68;;
68923;SDS011;55961;52.156;20.942;2023-12-20T03:09:37;7.93;;;2.90;;
68923;SDS011;55961;52.156;20.942;2023-12-20T03:12:03;9.57;;;3.72;;
68923;SDS011;55961;52.156;20.942;2023-12-20T03:14:29;7.00;;;3.27;;
68923;SDS011;55961;52.156;20.942;2023-12-20T03:16:55;9.80;;;3.70;;
68923;SDS011;55961;52.156;20.942;2023-12-20T03:19:21;8.25;;;3.72;;
68923;SDS011;55961;52.156;20.942;2023-12-20T03:21:47;8.30;;;3.13;;
68923;SDS011;55961;52.156;20.942;2023-12-20T03:24:13;7.53;;;3.00;;
68923;SDS011;55961;52.156;20.942;2023-12-20T03:26:39;7.00;;;3.13;;
68923;SDS011;55961;52.156;20.942;2023-12-20T03:29:05;9.50;;;3.42;;
68923;SDS011;55961;52.156;20.942;2023-12-20T03:31:31;8.25;;;3.85;;
68923;SDS011;55961;52.156;20.942;2023-12-20T03:33:57;8.27;;;4.10;;
68923;SDS011;55961;52.156;20.942;2023-12-20T03:36:23;10.55;;;4.78;;
68923;SDS011;55961;52.156;20.942;2023-12-20T03:38:48;10.07;;;4.25;;
68923;SDS011;55961;52.156;20.942;2023-12-20T03:41:14;8.03;;;3.73;;
68923;SDS011;55961;52.156;20.942;2023-12-20T03:43:40;9.68;;;5.10;;
68923;SDS011;55961;52.156;20.942;2023-12-20T03:46:09;8.98;;;4.72;;
68923;SDS011;55961;52.156;20.942;2023-12-20T03:48:35;10.65;;;5.40;;
68923;SDS011;55961;52.156;20.942;2023-12-20T03:51:01;10.50;;;5.03;;
68923;SDS011;55961;52.156;20.942;2023-12-20T03:53:27;10.37;;;5.10;;
68923;SDS011;55961;52.156;20.942;2023-12-20T03:55:53;9.25;;;4.45;;
68923;SDS011;55961;52.156;20.942;2023-12-20T03:58:19;10.23;;;4.13;;
68923;SDS011;55961;52.156;20.942;2023-12-20T04:00:45;7.30;;;3.80;;
68923;SDS011;55961;52.156;20.942;2023-12-20T04:03:11;7.57;;;3.33;;
68923;SDS011;55961;52.156;20.942;2023-12-20T04:05:39;8.85;;;3.67;;
68923;SDS011;55961;52.156;20.942;2023-12-20T04:08:06;5.93;;;2.75;;
68923;SDS011;55961;52.156;20.942;2023-12-20T04:10:32;9.77;;;4.43;;
68923;SDS011;55961;52.156;20.942;2023-12-20T04:12:58;9.00;;;4.10;;
68923;SDS011;55961;52.156;20.942;2023-12-20T04:15:24;9.60;;;3.88;;
68923;SDS011;55961;52.156;20.942;2023-12-20T04:17:50;8.77;;;4.57;;
68923;SDS011;55961;52.156;20.942;2023-12-20T04:20:16;8.55;;;4.32;;
68923;SDS011;55961;52.156;20.942;2023-12-20T04:22:42;9.55;;;4.35;;
68923;SDS011;55961;52.156;20.942;2023-12-20T04:25:08;9.52;;;4.15;;
68923;SDS011;55961;52.156;20.942;2023-12-20T04:27:34;8.73;;;4.80;;
68923;SDS011;55961;52.156;20.942;2023-12-20T04:30:00;8.38;;;4.30;;
68923;SDS011;55961;52.156;20.942;2023-12-20T04:32:25;8.40;;;4.45;;
68923;SDS011;55961;52.156;20.942;2023-12-20T04:34:52;8.45;;;3.97;;
68923;SDS011;55961;52.156;20.942;2023-12-20T04:37:17;9.83;;;4.23;;
68923;SDS011;55961;52.156;20.942;2023-12-20T04:39:43;7.53;;;3.53;;
68923;SDS011;55961;52.156;20.942;2023-12-20T04:42:09;8.83;;;4.10;;
68923;SDS011;55961;52.156;20.942;2023-12-20T04:44:35;9.43;;;4.23;;
68923;SDS011;55961;52.156;20.942;2023-12-20T04:47:01;7.72;;;3.47;;
68923;SDS011;55961;52.156;20.942;2023-12-20T04:49:27;5.97;;;2.75;;
68923;SDS011;55961;52.156;20.942;2023-12-20T04:51:53;8.70;;;4.13;;
68923;SDS011;55961;52.156;20.942;2023-12-20T04:54:19;8.60;;;4.25;;
68923;SDS011;55961;52.156;20.942;2023-12-20T04:56:45;9.02;;;4.05;;
68923;SDS011;55961;52.156;20.942;2023-12-20T04:59:11;8.30;;;4.20;;
68923;SDS011;55961;52.156;20.942;2023-12-20T05:01:37;10.00;;;4.32;;
68923;SDS011;55961;52.156;20.942;2023-12-20T05:04:02;10.07;;;5.00;;
68923;SDS011;55961;52.156;20.942;2023-12-20T05:06:29;14.15;;;5.55;;
68923;SDS011;55961;52.156;20.942;2023-12-20T05:08:55;9.13;;;4.70;;
68923;SDS011;55961;52.156;20.942;2023-12-20T05:11:21;9.93;;;5.15;;
68923;SDS011;55961;52.156;20.942;2023-12-20T05:13:47;8.48;;;4.32;;
68923;SDS011;55961;52.156;20.942;2023-12-20T05:16:13;8.45;;;3.53;;
68923;SDS011;55961;52.156;20.942;2023-12-20T05:18:46;11.00;;;5.00;;
68923;SDS011;55961;52.156;20.942;2023-12-20T05:21:13;12.20;;;6.07;;
68923;SDS011;55961;52.156;20.942;2023-12-20T05:23:39;11.32;;;5.70;;
68923;SDS011;55961;52.156;20.942;2023-12-20T05:26:05;15.07;;;6.65;;
68923;SDS011;55961;52.156;20.942;2023-12-20T05:28:31;21.57;;;10.60;;
68923;SDS011;55961;52.156;20.942;2023-12-20T05:30:57;19.35;;;8.00;;
68923;SDS011;55961;52.156;20.942;2023-12-20T05:33:23;11.52;;;5.65;;
68923;SDS011;55961;52.156;20.942;2023-12-20T05:35:50;9.05;;;4.40;;
68923;SDS011;55961;52.156;20.942;2023-12-20T05:38:16;12.17;;;5.83;;
68923;SDS011;55961;52.156;20.942;2023-12-20T05:40:42;17.02;;;6.03;;
68923;SDS011;55961;52.156;20.942;2023-12-20T05:43:08;13.05;;;5.55;;
68923;SDS011;55961;52.156;20.942;2023-12-20T05:45:34;9.32;;;4.43;;
68923;SDS011;55961;52.156;20.942;2023-12-20T05:47:59;8.83;;;4.70;;
68923;SDS011;55961;52.156;20.942;2023-12-20T05:50:26;10.32;;;5.20;;
68923;SDS011;55961;52.156;20.942;2023-12-20T05:52:51;10.37;;;5.13;;
68923;SDS011;55961;52.156;20.942;2023-12-20T05:55:17;8.90;;;4.50;;
68923;SDS011;55961;52.156;20.942;2023-12-20T05:57:43;9.50;;;4.47;;
68923;SDS011;55961;52.156;20.942;2023-12-20T06:00:09;10.48;;;4.55;;
68923;SDS011;55961;52.156;20.942;2023-12-20T06:02:35;10.83;;;4.90;;
68923;SDS011;55961;52.156;20.942;2023-12-20T06:05:05;14.30;;;5.35;;
68923;SDS011;55961;52.156;20.942;2023-12-20T06:07:31;10.98;;;4.95;;
68923;SDS011;55961;52.156;20.942;2023-12-20T06:09:57;10.57;;;4.80;;
68923;SDS011;55961;52.156;20.942;2023-12-20T06:12:23;12.53;;;5.27;;
68923;SDS011;55961;52.156;20.942;2023-12-20T06:14:49;18.92;;;5.10;;
68923;SDS011;55961;52.156;20.942;2023-12-20T06:17:15;10.57;;;5.18;;
68923;SDS011;55961;52.156;20.942;2023-12-20T06:19:41;10.20;;;5.27;;
68923;SDS011;55961;52.156;20.942;2023-12-20T06:22:10;11.07;;;4.68;;
68923;SDS011;55961;52.156;20.942;2023-12-20T06:24:36;9.93;;;4.55;;
68923;SDS011;55961;52.156;20.942;2023-12-20T06:27:02;8.55;;;3.70;;
68923;SDS011;55961;52.156;20.942;2023-12-20T06:29:28;10.43;;;5.00;;
68923;SDS011;55961;52.156;20.942;2023-12-20T06:31:54;11.07;;;5.43;;
68923;SDS011;55961;52.156;20.942;2023-12-20T06:34:20;11.25;;;6.43;;
68923;SDS011;55961;52.156;20.942;2023-12-20T06:36:46;18.17;;;7.97;;
68923;SDS011;55961;52.156;20.942;2023-12-20T06:39:12;17.30;;;9.10;;
68923;SDS011;55961;52.156;20.942;2023-12-20T06:41:38;20.40;;;10.70;;
68923;SDS011;55961;52.156;20.942;2023-12-20T06:44:04;18.00;;;9.60;;
68923;SDS011;55961;52.156;20.942;2023-12-20T06:46:30;17.98;;;9.52;;
68923;SDS011;55961;52.156;20.942;2023-12-20T06:48:56;16.00;;;7.75;;
68923;SDS011;55961;52.156;20.942;2023-12-20T06:51:21;13.03;;;6.87;;
68923;SDS011;55961;52.156;20.942;2023-12-20T06:53:51;8.77;;;4.40;;
68923;SDS011;55961;52.156;20.942;2023-12-20T06:56:17;13.13;;;7.20;;
68923;SDS011;55961;52.156;20.942;2023-12-20T06:58:43;12.30;;;6.63;;
68923;SDS011;55961;52.156;20.942;2023-12-20T07:01:13;14.77;;;7.20;;
68923;SDS011;55961;52.156;20.942;2023-12-20T07:03:40;13.83;;;6.80;;
68923;SDS011;55961;52.156;20.942;2023-12-20T07:06:06;12.52;;;5.55;;
68923;SDS011;55961;52.156;20.942;2023-12-20T07:08:33;17.98;;;8.32;;
68923;SDS011;55961;52.156;20.942;2023-12-20T07:10:59;14.80;;;7.90;;
68923;SDS011;55961;52.156;20.942;2023-12-20T07:13:25;13.60;;;6.63;;
68923;SDS011;55961;52.156;20.942;2023-12-20T07:15:50;12.60;;;6.77;;
68923;SDS011;55961;52.156;20.942;2023-12-20T07:18:17;11.63;;;5.85;;
68923;SDS011;55961;52.156;20.942;2023-12-20T07:20:42;10.13;;;5.40;;
68923;SDS011;55961;52.156;20.942;2023-12-20T07:23:09;14.20;;;5.18;;
68923;SDS011;55961;52.156;20.942;2023-12-20T07:25:34;12.98;;;6.63;;
68923;SDS011;55961;52.156;20.942;2023-12-20T07:28:00;11.97;;;6.20;;
68923;SDS011;55961;52.156;20.942;2023-12-20T07:30:26;10.18;;;5.05;;
68923;SDS011;55961;52.156;20.942;2023-12-20T07:32:52;9.80;;;4.93;;
68923;SDS011;55961;52.156;20.942;2023-12-20T07:35:18;12.67;;;6.23;;
68923;SDS011;55961;52.156;20.942;2023-12-20T07:37:44;13.98;;;6.43;;
68923;SDS011;55961;52.156;20.942;2023-12-20T07:40:10;12.65;;;6.25;;
68923;SDS011;55961;52.156;20.942;2023-12-20T07:42:36;12.10;;;5.85;;
68923;SDS011;55961;52.156;20.942;2023-12-20T07:45:03;10.57;;;5.43;;
68923;SDS011;55961;52.156;20.942;2023-12-20T07:47:29;10.55;;;5.78;;
68923;SDS011;55961;52.156;20.942;2023-12-20T07:49:55;8.95;;;4.28;;
68923;SDS011;55961;52.156;20.942;2023-12-20T07:52:21;9.07;;;4.38;;
68923;SDS011;55961;52.156;20.942;2023-12-20T07:54:51;9.88;;;5.25;;
68923;SDS011;55961;52.156;20.942;2023-12-20T07:57:17;10.03;;;4.20;;
68923;SDS011;55961;52.156;20.942;2023-12-20T07:59:43;10.15;;;4.35;;
68923;SDS011;55961;52.156;20.942;2023-12-20T08:02:09;12.30;;;5.85;;
68923;SDS011;55961;52.156;20.942;2023-12-20T08:04:35;10.93;;;5.55;;
68923;SDS011;55961;52.156;20.942;2023-12-20T08:07:01;9.63;;;4.13;;
68923;SDS011;55961;52.156;20.942;2023-12-20T08:09:27;10.18;;;4.90;;
68923;SDS011;55961;52.156;20.942;2023-12-20T08:11:53;11.27;;;5.32;;
68923;SDS011;55961;52.156;20.942;2023-12-20T08:14:19;9.77;;;4.23;;
68923;SDS011;55961;52.156;20.942;2023-12-20T08:16:45;9.20;;;3.67;;
68923;SDS011;55961;52.156;20.942;2023-12-20T08:19:11;8.98;;;4.07;;
68923;SDS011;55961;52.156;20.942;2023-12-20T08:21:37;10.18;;;4.40;;
68923;SDS011;55961;52.156;20.942;2023-12-20T08:24:03;8.40;;;3.67;;
68923;SDS011;55961;52.156;20.942;2023-12-20T08:26:29;9.57;;;3.67;;
68923;SDS011;55961;52.156;20.942;2023-12-20T08:28:55;14.77;;;5.28;;
68923;SDS011;55961;52.156;20.942;2023-12-20T08:31:21;9.33;;;3.63;;
68923;SDS011;55961;52.156;20.942;2023-12-20T08:33:47;6.95;;;3.63;;
68923;SDS011;55961;52.156;20.942;2023-12-20T08:36:14;8.52;;;4.07;;
68923;SDS011;55961;52.156;20.942;2023-12-20T08:38:40;15.65;;;6.05;;
68923;SDS011;55961;52.156;20.942;2023-12-20T08:41:06;16.97;;;7.93;;
68923;SDS011;55961;52.156;20.942;2023-12-20T08:43:33;19.67;;;8.02;;
68923;SDS011;55961;52.156;20.942;2023-12-20T08:46:00;14.75;;;6.45;;
68923;SDS011;55961;52.156;20.942;2023-12-20T08:48:27;10.98;;;5.32;;
68923;SDS011;55961;52.156;20.942;2023-12-20T08:50:53;12.93;;;5.93;;
68923;SDS011;55961;52.156;20.942;2023-12-20T08:53:19;10.83;;;4.70;;
68923;SDS011;55961;52.156;20.942;2023-12-20T08:55:46;7.53;;;3.30;;
68923;SDS011;55961;52.156;20.942;2023-12-20T08:58:12;6.95;;;3.30;;
68923;SDS011;55961;52.156;20.942;2023-12-20T09:00:38;6.50;;;2.53;;
68923;SDS011;55961;52.156;20.942;2023-12-20T09:03:05;8.83;;;3.77;;
68923;SDS011;55961;52.156;20.942;2023-12-20T09:05:31;7.05;;;2.90;;
68923;SDS011;55961;52.156;20.942;2023-12-20T09:07:57;6.75;;;3.33;;
68923;SDS011;55961;52.156;20.942;2023-12-20T09:10:23;9.37;;;3.53;;
68923;SDS011;55961;52.156;20.942;2023-12-20T09:12:49;7.97;;;3.80;;
68923;SDS011;55961;52.156;20.942;2023-12-20T09:15:25;7.35;;;3.95;;
68923;SDS011;55961;52.156;20.942;2023-12-20T09:17:52;8.30;;;3.78;;
68923;SDS011;55961;52.156;20.942;2023-12-20T09:20:19;7.72;;;2.78;;
68923;SDS011;55961;52.156;20.942;2023-12-20T09:22:45;7.50;;;3.50;;
68923;SDS011;55961;52.156;20.942;2023-12-20T09:25:11;8.10;;;3.40;;
68923;SDS011;55961;52.156;20.942;2023-12-20T09:27:38;5.15;;;2.13;;
68923;SDS011;55961;52.156;20.942;2023-12-20T09:30:04;6.68;;;3.38;;
68923;SDS011;55961;52.156;20.942;2023-12-20T09:32:31;10.17;;;4.17;;
68923;SDS011;55961;52.156;20.942;2023-12-20T09:34:57;9.38;;;4.57;;
68923;SDS011;55961;52.156;20.942;2023-12-20T09:37:26;9.40;;;4.10;;
68923;SDS011;55961;52.156;20.942;2023-12-20T09:39:52;7.80;;;3.47;;
68923;SDS011;55961;52.156;20.942;2023-12-20T09:42:21;8.18;;;3.60;;
68923;SDS011;55961;52.156;20.942;2023-12-20T09:44:53;9.47;;;3.60;;
68923;SDS011;55961;52.156;20.942;2023-12-20T09:47:19;7.93;;;3.88;;
68923;SDS011;55961;52.156;20.942;2023-12-20T09:49:48;8.50;;;3.63;;
68923;SDS011;55961;52.156;20.942;2023-12-20T09:52:16;8.80;;;2.72;;
68923;SDS011;55961;52.156;20.942;2023-12-20T09:54:43;17.42;;;7.05;;
68923;SDS011;55961;52.156;20.942;2023-12-20T09:57:11;9.07;;;4.50;;
68923;SDS011;55961;52.156;20.942;2023-12-20T09:59:36;8.15;;;2.92;;
68923;SDS011;55961;52.156;20.942;2023-12-20T10:02:04;7.60;;;3.28;;
68923;SDS011;55961;52.156;20.942;2023-12-20T10:04:36;6.50;;;2.78;;
68923;SDS011;55961;52.156;20.942;2023-12-20T10:07:02;6.73;;;3.00;;
68923;SDS011;55961;52.156;20.942;2023-12-20T10:09:32;6.80;;;2.78;;
68923;SDS011;55961;52.156;20.942;2023-12-20T10:12:00;9.00;;;3.65;;
68923;SDS011;55961;52.156;20.942;2023-12-20T10:14:25;18.10;;;7.28;;
68923;SDS011;55961;52.156;20.942;2023-12-20T10:16:51;8.57;;;3.03;;
68923;SDS011;55961;52.156;20.942;2023-12-20T10:19:19;9.07;;;3.05;;
68923;SDS011;55961;52.156;20.942;2023-12-20T10:21:45;10.13;;;4.35;;
68923;SDS011;55961;52.156;20.942;2023-12-20T10:24:16;6.68;;;3.10;;
68923;SDS011;55961;52.156;20.942;2023-12-20T10:26:43;8.35;;;4.35;;
68923;SDS011;55961;52.156;20.942;2023-12-20T10:29:09;9.50;;;4.20;;
68923;SDS011;55961;52.156;20.942;2023-12-20T10:31:36;9.00;;;4.45;;
68923;SDS011;55961;52.156;20.942;2023-12-20T10:34:04;8.68;;;3.80;;
68923;SDS011;55961;52.156;20.942;2023-12-20T10:36:30;8.10;;;3.90;;
68923;SDS011;55961;52.156;20.942;2023-12-20T10:38:57;8.57;;;3.70;;
68923;SDS011;55961;52.156;20.942;2023-12-20T10:41:26;8.60;;;3.55;;
68923;SDS011;55961;52.156;20.942;2023-12-20T10:44:01;8.68;;;4.20;;
68923;SDS011;55961;52.156;20.942;2023-12-20T10:46:29;8.48;;;3.53;;
68923;SDS011;55961;52.156;20.942;2023-12-20T10:48:56;8.27;;;4.05;;
68923;SDS011;55961;52.156;20.942;2023-12-20T10:51:23;7.87;;;3.57;;
68923;SDS011;55961;52.156;20.942;2023-12-20T10:53:51;7.75;;;3.35;;
68923;SDS011;55961;52.156;20.942;2023-12-20T10:56:18;8.65;;;4.68;;
68923;SDS011;55961;52.156;20.942;2023-12-20T10:58:46;7.88;;;3.40;;
68923;SDS011;55961;52.156;20.942;2023-12-20T11:01:14;5.55;;;2.33;;
68923;SDS011;55961;52.156;20.942;2023-12-20T11:03:42;6.17;;;2.77;;
68923;SDS011;55961;52.156;20.942;2023-12-20T11:06:22;8.48;;;4.18;;
68923;SDS011;55961;52.156;20.942;2023-12-20T11:11:37;7.70;;;3.28;;
68923;SDS011;55961;52.156;20.942;2023-12-20T11:14:07;8.43;;;4.10;;
68923;SDS011;55961;52.156;20.942;2023-12-20T11:16:40;8.60;;;3.87;;
68923;SDS011;55961;52.156;20.942;2023-12-20T11:19:06;8.40;;;3.70;;
68923;SDS011;55961;52.156;20.942;2023-12-20T11:21:33;10.55;;;4.20;;
68923;SDS011;55961;52.156;20.942;2023-12-20T11:23:59;7.65;;;4.00;;
68923;SDS011;55961;52.156;20.942;2023-12-20T11:26:29;8.30;;;3.90;;
68923;SDS011;55961;52.156;20.942;2023-12-20T11:29:40;10.33;;;3.43;;
68923;SDS011;55961;52.156;20.942;2023-12-20T11:32:01;9.07;;;4.10;;
68923;SDS011;55961;52.156;20.942;2023-12-20T11:34:51;6.30;;;2.90;;
68923;SDS011;55961;52.156;20.942;2023-12-20T11:37:19;5.47;;;2.53;;
68923;SDS011;55961;52.156;20.942;2023-12-20T11:39:45;7.95;;;3.85;;
68923;SDS011;55961;52.156;20.942;2023-12-20T11:42:21;7.60;;;3.87;;
68923;SDS011;55961;52.156;20.942;2023-12-20T11:44:47;7.55;;;3.63;;
68923;SDS011;55961;52.156;20.942;2023-12-20T11:47:13;7.45;;;3.60;;
68923;SDS011;55961;52.156;20.942;2023-12-20T11:49:41;7.95;;;3.72;;
68923;SDS011;55961;52.156;20.942;2023-12-20T11:52:07;9.43;;;3.80;;
68923;SDS011;55961;52.156;20.942;2023-12-20T11:54:32;9.02;;;4.20;;
68923;SDS011;55961;52.156;20.942;2023-12-20T11:56:58;7.30;;;3.85;;
68923;SDS011;55961;52.156;20.942;2023-12-20T11:59:24;5.30;;;2.60;;
68923;SDS011;55961;52.156;20.942;2023-12-20T12:01:50;7.00;;;3.60;;
68923;SDS011;55961;52.156;20.942;2023-12-20T12:04:16;6.53;;;2.70;;
68923;SDS011;55961;52.156;20.942;2023-12-20T12:06:43;8.52;;;3.53;;
68923;SDS011;55961;52.156;20.942;2023-12-20T12:09:10;9.37;;;2.77;;
68923;SDS011;55961;52.156;20.942;2023-12-20T12:11:36;7.97;;;3.05;;
68923;SDS011;55961;52.156;20.942;2023-12-20T12:14:02;9.38;;;3.90;;
68923;SDS011;55961;52.156;20.942;2023-12-20T12:16:28;6.78;;;2.55;;
68923;SDS011;55961;52.156;20.942;2023-12-20T12:18:55;7.60;;;3.40;;
68923;SDS011;55961;52.156;20.942;2023-12-20T12:21:22;5.68;;;2.78;;
68923;SDS011;55961;52.156;20.942;2023-12-20T12:23:48;7.65;;;2.83;;
68923;SDS011;55961;52.156;20.942;2023-12-20T12:26:15;9.15;;;3.60;;
68923;SDS011;55961;52.156;20.942;2023-12-20T12:28:41;5.95;;;2.22;;
68923;SDS011;55961;52.156;20.942;2023-12-20T12:31:08;6.23;;;2.87;;
68923;SDS011;55961;52.156;20.942;2023-12-20T12:33:40;6.22;;;2.85;;
68923;SDS011;55961;52.156;20.942;2023-12-20T12:36:07;8.73;;;2.85;;
68923;SDS011;55961;52.156;20.942;2023-12-20T12:38:33;7.03;;;3.17;;
68923;SDS011;55961;52.156;20.942;2023-12-20T12:41:00;7.57;;;2.88;;
68923;SDS011;55961;52.156;20.942;2023-12-20T12:43:26;7.20;;;2.77;;
68923;SDS011;55961;52.156;20.942;2023-12-20T12:45:52;6.97;;;2.53;;
68923;SDS011;55961;52.156;20.942;2023-12-20T12:48:18;6.85;;;2.97;;
68923;SDS011;55961;52.156;20.942;2023-12-20T12:50:47;8.23;;;2.88;;
68923;SDS011;55961;52.156;20.942;2023-12-20T12:53:13;8.02;;;3.75;;
68923;SDS011;55961;52.156;20.942;2023-12-20T12:55:39;8.53;;;3.17;;
68923;SDS011;55961;52.156;20.942;2023-12-20T12:58:05;8.57;;;3.03;;
68923;SDS011;55961;52.156;20.942;2023-12-20T13:00:31;8.75;;;3.63;;
68923;SDS011;55961;52.156;20.942;2023-12-20T13:02:57;9.18;;;4.50;;
68923;SDS011;55961;52.156;20.942;2023-12-20T13:05:23;9.63;;;4.47;;
68923;SDS011;55961;52.156;20.942;2023-12-20T13:07:49;10.38;;;3.78;;
68923;SDS011;55961;52.156;20.942;2023-12-20T13:10:15;7.25;;;2.63;;
68923;SDS011;55961;52.156;20.942;2023-12-20T13:12:44;10.93;;;4.43;;
68923;SDS011;55961;52.156;20.942;2023-12-20T13:15:10;9.00;;;4.10;;
68923;SDS011;55961;52.156;20.942;2023-12-20T13:17:36;8.90;;;3.67;;
68923;SDS011;55961;52.156;20.942;2023-12-20T13:20:03;6.90;;;3.28;;
68923;SDS011;55961;52.156;20.942;2023-12-20T13:22:29;8.88;;;3.58;;
68923;SDS011;55961;52.156;20.942;2023-12-20T13:24:55;5.60;;;2.60;;
68923;SDS011;55961;52.156;20.942;2023-12-20T13:27:21;9.68;;;3.60;;
68923;SDS011;55961;52.156;20.942;2023-12-20T13:29:47;9.57;;;4.10;;
68923;SDS011;55961;52.156;20.942;2023-12-20T13:32:13;7.30;;;3.27;;
68923;SDS011;55961;52.156;20.942;2023-12-20T13:34:39;9.02;;;2.58;;
68923;SDS011;55961;52.156;20.942;2023-12-20T13:37:05;10.95;;;3.85;;
68923;SDS011;55961;52.156;20.942;2023-12-20T13:39:31;9.30;;;3.13;;
68923;SDS011;55961;52.156;20.942;2023-12-20T13:41:57;9.07;;;4.10;;
68923;SDS011;55961;52.156;20.942;2023-12-20T13:44:23;10.95;;;5.10;;
68923;SDS011;55961;52.156;20.942;2023-12-20T13:46:49;9.88;;;4.43;;
68923;SDS011;55961;52.156;20.942;2023-12-20T13:49:15;10.52;;;4.57;;
68923;SDS011;55961;52.156;20.942;2023-12-20T13:51:41;10.00;;;3.97;;
68923;SDS011;55961;52.156;20.942;2023-12-20T13:54:07;11.68;;;4.90;;
68923;SDS011;55961;52.156;20.942;2023-12-20T13:56:34;8.25;;;3.80;;
68923;SDS011;55961;52.156;20.942;2023-12-20T13:58:59;11.15;;;4.32;;
68923;SDS011;55961;52.156;20.942;2023-12-20T14:01:25;9.57;;;3.37;;
68923;SDS011;55961;52.156;20.942;2023-12-20T14:03:51;5.80;;;2.42;;
68923;SDS011;55961;52.156;20.942;2023-12-20T14:06:17;13.27;;;3.33;;
68923;SDS011;55961;52.156;20.942;2023-12-20T14:08:43;9.57;;;4.40;;
68923;SDS011;55961;52.156;20.942;2023-12-20T14:11:09;7.63;;;3.67;;
68923;SDS011;55961;52.156;20.942;2023-12-20T14:13:36;6.43;;;3.33;;
68923;SDS011;55961;52.156;20.942;2023-12-20T14:16:02;9.73;;;4.60;;
68923;SDS011;55961;52.156;20.942;2023-12-20T14:18:29;8.20;;;3.53;;
68923;SDS011;55961;52.156;20.942;2023-12-20T14:20:55;11.47;;;3.93;;
68923;SDS011;55961;52.156;20.942;2023-12-20T14:23:21;8.35;;;4.03;;
68923;SDS011;55961;52.156;20.942;2023-12-20T14:25:48;7.82;;;3.72;;
68923;SDS011;55961;52.156;20.942;2023-12-20T14:28:14;11.60;;;4.75;;